createdAt,value
2023-02-12T00:01:09.867Z,16.08
2023-02-12T00:03:38.259Z,20.05
2023-02-12T00:06:06.583Z,22.23
2023-02-12T00:08:33.674Z,19.60
2023-02-12T00:11:07.636Z,19.12
2023-02-12T00:13:34.662Z,23.83
2023-02-12T00:16:05.934Z,20.37
2023-02-12T00:18:33.032Z,22.02
2023-02-12T00:21:01.320Z,22.90
2023-02-12T00:23:28.838Z,17.80
2023-02-12T00:25:56.183Z,20.17
2023-02-12T00:28:23.876Z,22.95
2023-02-12T00:30:51.382Z,23.98
2023-02-12T00:33:18.851Z,24.15
2023-02-12T00:35:45.907Z,23.40
2023-02-12T00:38:13.310Z,24.70
2023-02-12T00:40:40.522Z,22.90
2023-02-12T00:43:07.884Z,22.13
2023-02-12T00:45:35.251Z,22.58
2023-02-12T00:48:02.284Z,25.88
2023-02-12T00:50:31.803Z,20.90
2023-02-12T00:53:00.610Z,20.75
2023-02-12T00:55:27.623Z,19.83
2023-02-12T00:57:54.699Z,18.05
2023-02-12T01:00:22.129Z,23.55
2023-02-12T01:02:49.207Z,24.80
2023-02-12T01:05:16.348Z,30.33
2023-02-12T01:07:44.395Z,24.73
2023-02-12T01:10:11.487Z,21.65
2023-02-12T01:12:38.545Z,17.75
2023-02-12T01:15:06.169Z,18.10
2023-02-12T01:17:34.117Z,25.70
2023-02-12T01:20:01.124Z,20.60
2023-02-12T01:22:28.443Z,25.55
2023-02-12T01:24:55.431Z,21.17
2023-02-12T01:27:22.451Z,21.95
2023-02-12T01:29:49.892Z,17.95
2023-02-12T01:32:16.952Z,20.77
2023-02-12T01:34:44.067Z,21.02
2023-02-12T01:37:11.421Z,18.20
2023-02-12T01:39:38.445Z,17.40
2023-02-12T01:42:06.110Z,22.80
2023-02-12T01:44:44.536Z,23.05
2023-02-12T01:47:16.750Z,19.73
2023-02-12T01:49:47.150Z,22.27
2023-02-12T01:52:20.236Z,23.90
2023-02-12T01:54:48.828Z,18.95
2023-02-12T01:57:17.320Z,20.75
2023-02-12T01:59:46.266Z,24.52
2023-02-12T02:02:14.147Z,20.05
2023-02-12T02:04:49.845Z,22.55
2023-02-12T02:07:16.963Z,24.17
2023-02-12T02:09:44.454Z,31.95
2023-02-12T02:12:30.107Z,21.25
2023-02-12T02:14:59.980Z,24.80
2023-02-12T02:17:51.784Z,26.98
2023-02-12T02:20:53.010Z,24.35
2023-02-12T02:23:29.130Z,23.40
2023-02-12T02:26:27.423Z,19.70
2023-02-12T02:29:32.250Z,24.80
2023-02-12T02:32:07.481Z,21.90
2023-02-12T02:34:34.534Z,19.67
2023-02-12T02:37:13.965Z,24.63
2023-02-12T02:39:50.608Z,22.48
2023-02-12T02:42:25.262Z,17.20
2023-02-12T02:44:54.909Z,20.37
2023-02-12T02:47:32.527Z,27.10
2023-02-12T02:50:04.484Z,24.90
2023-02-12T02:52:41.501Z,28.70
2023-02-12T02:55:10.167Z,22.15
2023-02-12T02:58:09.448Z,22.23
2023-02-12T03:00:43.511Z,22.70
2023-02-12T03:03:24.623Z,25.52
2023-02-12T03:05:54.838Z,31.45
2023-02-12T03:08:43.276Z,26.00
2023-02-12T03:11:15.918Z,24.00
2023-02-12T03:13:50.003Z,21.95
2023-02-12T03:16:51.743Z,22.45
2023-02-12T03:19:29.397Z,26.55
2023-02-12T03:22:08.913Z,25.05
2023-02-12T03:24:40.783Z,23.77
2023-02-12T03:27:07.752Z,27.42
2023-02-12T03:29:35.137Z,24.45
2023-02-12T03:32:36.367Z,23.73
2023-02-12T03:35:14.729Z,23.95
2023-02-12T03:37:51.126Z,23.45
2023-02-12T03:40:27.875Z,30.58
2023-02-12T03:43:12.594Z,27.10
2023-02-12T03:46:03.832Z,31.83
2023-02-12T03:48:37.928Z,31.35
2023-02-12T03:51:13.671Z,33.92
2023-02-12T03:53:42.709Z,29.45
2023-02-12T03:56:13.842Z,30.40
2023-02-12T03:58:42.474Z,26.58
2023-02-12T04:01:09.838Z,25.85
2023-02-12T04:03:37.501Z,32.55
2023-02-12T04:06:05.046Z,30.42
2023-02-12T04:08:32.913Z,28.55
2023-02-12T04:11:35.002Z,26.73
2023-02-12T04:14:23.243Z,29.98
2023-02-12T04:16:58.384Z,25.50
2023-02-12T04:19:55.677Z,25.73
2023-02-12T04:22:22.974Z,27.52
2023-02-12T04:24:53.448Z,28.90
2023-02-12T04:27:30.755Z,29.23
2023-02-12T04:30:13.972Z,29.45
2023-02-12T04:32:47.980Z,26.77
2023-02-12T04:35:24.629Z,28.00
2023-02-12T04:37:59.187Z,26.40
2023-02-12T04:40:26.745Z,28.10
2023-02-12T04:42:54.104Z,32.35
2023-02-12T04:45:26.189Z,25.80
2023-02-12T04:47:53.913Z,25.37
2023-02-12T04:50:21.257Z,29.70
2023-02-12T04:52:48.387Z,35.75
2023-02-12T04:55:16.074Z,32.10
2023-02-12T04:57:43.158Z,22.20
2023-02-12T05:00:13.470Z,30.95
2023-02-12T05:02:41.095Z,31.10
2023-02-12T05:05:08.434Z,31.85
2023-02-12T05:07:35.492Z,26.98
2023-02-12T05:10:03.386Z,32.67
2023-02-12T05:12:30.486Z,27.25
2023-02-12T05:14:58.047Z,34.95
2023-02-12T05:17:25.577Z,26.45
2023-02-12T05:19:52.795Z,30.52
2023-02-12T05:22:19.946Z,31.12
2023-02-12T05:24:47.525Z,30.92
2023-02-12T05:27:14.674Z,27.48
2023-02-12T05:29:42.149Z,33.13
2023-02-12T05:32:09.652Z,28.85
2023-02-12T05:34:37.285Z,31.52
2023-02-12T05:37:04.436Z,31.35
2023-02-12T05:39:31.919Z,31.27
2023-02-12T05:41:59.045Z,32.15
2023-02-12T05:44:26.180Z,29.00
2023-02-12T05:46:53.623Z,30.33
2023-02-12T05:49:20.699Z,29.17
2023-02-12T05:51:48.113Z,26.60
2023-02-12T05:54:15.442Z,28.02
2023-02-12T05:56:47.562Z,30.00
2023-02-12T05:59:17.546Z,27.90
2023-02-12T06:01:46.452Z,30.40
2023-02-12T06:04:25.443Z,31.62
2023-02-12T06:06:53.482Z,31.58
2023-02-12T06:09:20.853Z,28.08
2023-02-12T06:11:48.036Z,30.65
2023-02-12T06:14:17.410Z,32.35
2023-02-12T06:16:49.664Z,27.80
2023-02-12T06:19:17.500Z,28.73
2023-02-12T06:21:45.141Z,32.20
2023-02-12T06:24:13.553Z,32.72
2023-02-12T06:26:40.981Z,29.15
2023-02-12T06:29:08.381Z,31.37
2023-02-12T06:31:36.597Z,29.05
2023-02-12T06:34:05.894Z,30.60
2023-02-12T06:36:33.796Z,28.98
2023-02-12T06:39:02.676Z,28.42
2023-02-12T06:41:30.131Z,26.83
2023-02-12T06:43:57.592Z,31.12
2023-02-12T06:46:25.733Z,31.98
2023-02-12T06:48:54.874Z,27.85
2023-02-12T06:51:23.560Z,35.05
2023-02-12T06:53:51.957Z,31.23
2023-02-12T06:56:20.099Z,29.27
2023-02-12T06:58:55.037Z,27.15
2023-02-12T07:01:27.097Z,28.38
2023-02-12T07:03:59.866Z,24.48
2023-02-12T07:06:28.139Z,25.40
2023-02-12T07:08:56.500Z,29.02
2023-02-12T07:11:25.996Z,28.98
2023-02-12T07:13:53.316Z,25.80
2023-02-12T07:16:20.732Z,30.33
2023-02-12T07:18:48.114Z,31.20
2023-02-12T07:21:16.618Z,27.33
2023-02-12T07:23:51.932Z,26.95
2023-02-12T07:26:20.241Z,22.83
2023-02-12T07:28:47.886Z,25.23
2023-02-12T07:31:18.363Z,24.63
2023-02-12T07:33:46.128Z,26.12
2023-02-12T07:36:18.539Z,26.05
2023-02-12T07:38:45.967Z,28.27
2023-02-12T07:41:15.028Z,18.90
2023-02-12T07:43:43.694Z,20.73
2023-02-12T07:46:14.447Z,22.83
2023-02-12T07:48:41.955Z,23.45
2023-02-12T07:51:11.091Z,24.05
2023-02-12T07:53:38.986Z,23.50
2023-02-12T07:56:17.688Z,23.70
2023-02-12T07:58:46.038Z,23.85
2023-02-12T08:01:31.020Z,24.27
2023-02-12T08:04:00.599Z,22.02
2023-02-12T08:06:31.627Z,22.30
2023-02-12T08:09:00.926Z,19.77
2023-02-12T08:11:29.165Z,17.73
2023-02-12T08:13:57.949Z,20.65
2023-02-12T08:16:26.629Z,19.08
2023-02-12T08:18:54.846Z,22.52
2023-02-12T08:21:24.860Z,18.10
2023-02-12T08:23:54.428Z,19.20
2023-02-12T08:26:24.230Z,16.12
2023-02-12T08:28:55.323Z,19.62
2023-02-12T08:31:27.594Z,18.15
2023-02-12T08:33:55.642Z,16.87
2023-02-12T08:36:24.916Z,17.83
2023-02-12T08:38:52.978Z,15.55
2023-02-12T08:41:23.196Z,13.93
2023-02-12T08:43:52.600Z,20.90
2023-02-12T08:46:21.880Z,21.12
2023-02-12T08:48:55.615Z,15.55
2023-02-12T08:51:31.854Z,15.33
2023-02-12T08:54:01.282Z,17.65
2023-02-12T08:56:30.120Z,15.75
2023-02-12T08:58:58.562Z,13.48
2023-02-12T09:01:27.652Z,18.73
2023-02-12T09:03:55.368Z,15.80
2023-02-12T09:06:24.056Z,15.70
2023-02-12T09:08:52.786Z,13.48
2023-02-12T09:11:24.474Z,16.42
2023-02-12T09:13:51.873Z,14.48
2023-02-12T09:16:19.087Z,14.87
2023-02-12T09:18:46.244Z,13.20
2023-02-12T09:21:16.723Z,13.23
2023-02-12T09:23:44.538Z,13.82
2023-02-12T09:26:15.277Z,12.55
2023-02-12T09:28:43.263Z,12.98
2023-02-12T09:31:15.984Z,12.85
2023-02-12T09:33:43.728Z,12.70
2023-02-12T09:36:13.865Z,14.15
2023-02-12T09:38:41.185Z,14.52
2023-02-12T09:41:20.670Z,15.20
2023-02-12T09:44:04.002Z,13.27
2023-02-12T09:46:49.788Z,10.77
2023-02-12T09:50:02.114Z,12.68
2023-02-12T09:52:29.790Z,10.90
2023-02-12T09:54:57.130Z,13.27
2023-02-12T09:57:33.487Z,13.35
2023-02-12T10:00:06.567Z,13.00
2023-02-12T10:02:39.835Z,11.63
2023-02-12T10:05:16.743Z,14.02
2023-02-12T10:07:50.123Z,11.35
2023-02-12T10:10:42.063Z,9.52
2023-02-12T10:13:19.082Z,11.85
2023-02-12T10:15:49.104Z,10.98
2023-02-12T10:19:01.288Z,11.27
2023-02-12T10:21:33.989Z,12.05
2023-02-12T10:24:33.897Z,9.35
2023-02-12T10:27:05.632Z,9.73
2023-02-12T10:29:35.225Z,15.00
2023-02-12T10:32:06.305Z,13.25
2023-02-12T10:34:35.739Z,12.15
2023-02-12T10:37:14.207Z,13.95
2023-02-12T10:39:43.824Z,13.48
2023-02-12T10:42:15.225Z,10.43
2023-02-12T10:44:42.661Z,10.95
2023-02-12T10:47:17.920Z,9.65
2023-02-12T10:49:45.462Z,8.60
2023-02-12T10:52:25.853Z,12.32
2023-02-12T10:54:53.390Z,10.55
2023-02-12T10:57:24.138Z,10.43
2023-02-12T10:59:53.674Z,8.90
2023-02-12T11:02:32.604Z,7.57
2023-02-12T11:05:01.308Z,9.13
2023-02-12T11:07:29.167Z,8.45
2023-02-12T11:09:57.352Z,8.98
2023-02-12T11:12:24.408Z,8.00
2023-02-12T11:14:54.537Z,6.57
2023-02-12T11:17:26.635Z,9.70
2023-02-12T11:20:05.692Z,8.32
2023-02-12T11:22:32.820Z,9.02
2023-02-12T11:25:02.908Z,7.95
2023-02-12T11:27:30.936Z,8.13
2023-02-12T11:30:10.398Z,7.35
2023-02-12T11:32:37.740Z,8.57
2023-02-12T11:35:15.253Z,8.00
2023-02-12T11:37:44.017Z,7.90
2023-02-12T11:40:20.575Z,6.55
2023-02-12T11:42:51.998Z,8.18
2023-02-12T11:45:21.150Z,5.68
2023-02-12T11:47:48.698Z,7.62
2023-02-12T11:50:26.492Z,6.32
2023-02-12T11:53:00.783Z,9.13
2023-02-12T11:55:33.519Z,5.97
2023-02-12T11:58:14.836Z,6.93
2023-02-12T12:00:47.226Z,7.12
2023-02-12T12:03:26.996Z,8.13
2023-02-12T12:06:21.950Z,6.87
2023-02-12T12:09:12.194Z,6.75
2023-02-12T12:12:17.807Z,5.57
2023-02-12T12:15:11.044Z,5.37
2023-02-12T12:18:02.590Z,9.15
2023-02-12T12:20:33.315Z,26.85
2023-02-12T12:23:06.343Z,8.30
2023-02-12T12:25:53.174Z,7.43
2023-02-12T12:28:32.843Z,8.27
2023-02-12T12:31:16.378Z,5.15
2023-02-12T12:33:50.300Z,6.90
2023-02-12T12:39:24.425Z,7.80
2023-02-12T12:42:15.047Z,7.90
2023-02-12T12:45:05.884Z,6.93
2023-02-12T12:47:52.040Z,9.48
2023-02-12T12:50:35.753Z,6.00
2023-02-12T12:53:22.301Z,9.65
2023-02-12T12:56:10.958Z,8.30
2023-02-12T12:59:08.606Z,12.07
2023-02-12T13:02:21.299Z,8.75
2023-02-12T13:05:10.440Z,5.90
2023-02-12T13:07:40.376Z,4.45
2023-02-12T13:10:28.773Z,6.82
2023-02-12T13:13:13.607Z,5.43
2023-02-12T13:16:01.490Z,5.82
2023-02-12T13:18:37.568Z,6.25
2023-02-12T13:21:04.959Z,8.30
2023-02-12T13:23:55.142Z,5.75
2023-02-12T13:26:33.482Z,8.45
2023-02-12T13:29:25.196Z,7.45
2023-02-12T13:31:59.574Z,6.18
2023-02-12T13:36:59.902Z,4.47
2023-02-12T13:39:34.497Z,8.63
2023-02-12T13:42:10.088Z,3.92
2023-02-12T13:45:06.135Z,4.60
2023-02-12T13:47:57.684Z,8.85
2023-02-12T13:50:33.440Z,21.98
2023-02-12T13:53:23.840Z,19.58
2023-02-12T13:56:33.803Z,21.40
2023-02-12T13:59:01.321Z,24.65
2023-02-12T14:01:47.460Z,27.02
2023-02-12T14:04:21.317Z,28.25
2023-02-12T14:06:55.691Z,27.75
2023-02-12T14:09:30.057Z,20.02
2023-02-12T14:14:31.319Z,23.10
2023-02-12T14:16:58.542Z,29.42
2023-02-12T14:19:50.242Z,26.05
2023-02-12T14:22:26.369Z,25.15
2023-02-12T14:24:58.106Z,30.27
2023-02-12T14:27:25.094Z,23.65
2023-02-12T14:30:02.444Z,30.98
2023-02-12T14:32:55.701Z,29.70
2023-02-12T14:35:40.296Z,26.35
2023-02-12T14:38:16.509Z,28.23
2023-02-12T14:40:46.968Z,25.23
2023-02-12T14:43:24.769Z,30.55
2023-02-12T14:45:51.915Z,28.38
2023-02-12T14:48:41.148Z,27.75
2023-02-12T14:51:19.649Z,31.17
2023-02-12T14:53:47.950Z,31.95
2023-02-12T14:56:20.015Z,23.62
2023-02-12T14:58:48.554Z,22.77
2023-02-12T15:01:15.882Z,25.40
2023-02-12T15:03:52.858Z,25.95
2023-02-12T15:06:22.894Z,30.62
2023-02-12T15:08:54.606Z,26.48
2023-02-12T15:11:24.960Z,26.58
2023-02-12T15:13:58.939Z,28.83
2023-02-12T15:16:33.817Z,28.48
2023-02-12T15:19:21.474Z,24.42
2023-02-12T15:21:51.883Z,31.52
2023-02-12T15:24:24.340Z,25.58
2023-02-12T15:26:54.544Z,30.08
2023-02-12T15:29:29.391Z,27.02
2023-02-12T15:32:07.423Z,26.35
2023-02-12T15:34:38.891Z,29.30
2023-02-12T15:37:07.967Z,35.17
2023-02-12T15:39:38.224Z,29.98
2023-02-12T15:42:05.347Z,31.40
2023-02-12T15:44:34.777Z,32.53
2023-02-12T15:47:12.320Z,28.65
2023-02-12T15:49:40.862Z,30.02
2023-02-12T15:52:16.135Z,29.52
2023-02-12T15:54:45.347Z,29.17
2023-02-12T15:57:18.982Z,26.95
2023-02-12T15:59:51.515Z,26.75
2023-02-12T16:02:38.231Z,26.08
2023-02-12T16:05:06.530Z,27.98
2023-02-12T16:07:36.390Z,29.67
2023-02-12T16:10:04.774Z,32.20
2023-02-12T16:12:34.671Z,27.13
2023-02-12T16:15:03.370Z,32.13
2023-02-12T16:17:35.630Z,32.85
2023-02-12T16:20:08.848Z,32.75
2023-02-12T16:22:40.664Z,32.85
2023-02-12T16:25:16.837Z,36.35
2023-02-12T16:27:51.474Z,32.95
2023-02-12T16:30:38.830Z,21.73
2023-02-12T16:33:41.127Z,14.57
2023-02-12T16:36:31.918Z,22.25
2023-02-12T16:39:05.953Z,21.73
2023-02-12T16:41:35.546Z,19.95
2023-02-12T16:44:02.597Z,18.55
2023-02-12T16:46:32.344Z,16.30
2023-02-12T16:49:00.915Z,14.90
2023-02-12T16:51:30.998Z,13.65
2023-02-12T16:54:02.394Z,12.93
2023-02-12T16:56:34.127Z,9.60
2023-02-12T16:59:02.100Z,11.43
2023-02-12T17:01:35.358Z,10.68
2023-02-12T17:04:06.831Z,11.80
2023-02-12T17:06:34.218Z,7.93
2023-02-12T17:09:01.292Z,12.73
2023-02-12T17:11:29.104Z,10.30
2023-02-12T17:13:56.816Z,10.75
2023-02-12T17:16:30.842Z,12.68
2023-02-12T17:18:59.729Z,10.68
2023-02-12T17:21:37.860Z,6.87
2023-02-12T17:24:07.495Z,12.15
2023-02-12T17:26:34.506Z,8.75
2023-02-12T17:29:05.360Z,11.63
2023-02-12T17:31:33.886Z,7.18
2023-02-12T17:34:01.346Z,8.82
2023-02-12T17:36:28.408Z,13.20
2023-02-12T17:38:55.743Z,11.68
2023-02-12T17:41:24.495Z,7.60
2023-02-12T17:43:51.570Z,13.02
2023-02-12T17:46:21.098Z,9.40
2023-02-12T17:48:48.308Z,9.20
2023-02-12T17:51:15.641Z,11.68
2023-02-12T17:53:43.247Z,8.77
2023-02-12T17:56:18.940Z,10.38
2023-02-12T17:58:47.071Z,10.73
2023-02-12T18:01:16.867Z,12.18
2023-02-12T18:03:44.235Z,11.23
2023-02-12T18:06:14.170Z,12.32
2023-02-12T18:08:41.898Z,11.63
2023-02-12T18:11:11.292Z,10.63
2023-02-12T18:13:39.132Z,11.93
2023-02-12T18:16:07.544Z,8.70
2023-02-12T18:18:35.494Z,11.00
2023-02-12T18:21:07.557Z,8.95
2023-02-12T18:23:35.027Z,11.05
2023-02-12T18:26:06.025Z,8.43
2023-02-12T18:28:33.423Z,10.00
2023-02-12T18:31:01.429Z,9.85
2023-02-12T18:33:29.421Z,8.80
2023-02-12T18:36:17.583Z,11.80
2023-02-12T18:38:47.205Z,10.93
2023-02-12T18:41:25.851Z,9.15
2023-02-12T18:43:53.437Z,12.73
2023-02-12T18:46:30.938Z,11.77
2023-02-12T18:48:59.325Z,11.65
2023-02-12T18:51:28.270Z,7.82
2023-02-12T18:53:56.943Z,10.18
2023-02-12T18:56:24.336Z,13.50
2023-02-12T18:58:55.516Z,8.15
2023-02-12T19:01:22.897Z,11.02
2023-02-12T19:03:53.619Z,8.98
2023-02-12T19:06:22.043Z,8.52
2023-02-12T19:08:49.202Z,8.38
2023-02-12T19:11:17.314Z,13.60
2023-02-12T19:13:44.421Z,11.55
2023-02-12T19:16:14.933Z,12.77
2023-02-12T19:18:42.570Z,12.63
2023-02-12T19:21:13.726Z,12.82
2023-02-12T19:23:40.899Z,9.75
2023-02-12T19:26:10.663Z,9.77
2023-02-12T19:28:40.730Z,11.23
2023-02-12T19:31:19.227Z,12.52
2023-02-12T19:33:47.390Z,12.95
2023-02-12T19:36:19.579Z,12.27
2023-02-12T19:38:48.170Z,13.65
2023-02-12T19:41:18.466Z,10.65
2023-02-12T19:43:46.066Z,11.10
2023-02-12T19:46:18.860Z,13.15
2023-02-12T19:48:47.012Z,12.10
2023-02-12T19:51:20.542Z,15.57
2023-02-12T19:53:48.470Z,19.15
2023-02-12T19:56:16.451Z,17.40
2023-02-12T19:58:44.121Z,12.43
2023-02-12T20:01:16.895Z,12.32
2023-02-12T20:03:45.365Z,16.15
2023-02-12T20:06:21.103Z,13.32
2023-02-12T20:08:48.712Z,15.55
2023-02-12T20:11:18.441Z,13.57
2023-02-12T20:13:45.818Z,8.95
2023-02-12T20:16:16.146Z,13.65
2023-02-12T20:18:48.297Z,15.40
2023-02-12T20:21:19.183Z,16.85
2023-02-12T20:23:46.360Z,11.63
2023-02-12T20:26:14.539Z,16.10
2023-02-12T20:28:43.098Z,13.90
2023-02-12T20:31:19.016Z,17.10
2023-02-12T20:33:47.183Z,11.98
2023-02-12T20:36:14.770Z,18.67
2023-02-12T20:38:43.521Z,11.10
2023-02-12T20:41:11.461Z,11.43
2023-02-12T20:43:38.988Z,12.95
2023-02-12T20:46:14.458Z,19.90
2023-02-12T20:48:42.526Z,29.20
2023-02-12T20:51:12.028Z,15.35
2023-02-12T20:53:40.822Z,18.62
2023-02-12T20:56:16.384Z,14.05
2023-02-12T20:58:45.033Z,13.55
2023-02-12T21:01:21.247Z,14.93
2023-02-12T21:03:49.454Z,15.70
2023-02-12T21:06:17.443Z,23.77
2023-02-12T21:08:44.493Z,24.75
2023-02-12T21:11:15.393Z,33.35
2023-02-12T21:13:58.442Z,35.42
2023-02-12T21:16:32.084Z,37.13
2023-02-12T21:18:59.687Z,45.03
2023-02-12T21:21:29.382Z,38.17
2023-02-12T21:23:57.822Z,49.20
2023-02-12T21:26:27.390Z,38.53
2023-02-12T21:28:57.049Z,39.30
2023-02-12T21:31:25.448Z,36.40
2023-02-12T21:33:54.188Z,44.95
2023-02-12T21:36:24.151Z,46.58
2023-02-12T21:38:52.223Z,41.22
2023-02-12T21:41:24.976Z,45.25
2023-02-12T21:43:56.503Z,52.85
2023-02-12T21:46:23.767Z,55.50
2023-02-12T21:48:51.236Z,48.10
2023-02-12T21:51:24.379Z,52.38
2023-02-12T21:53:53.758Z,53.78
2023-02-12T21:56:21.826Z,54.53
2023-02-12T21:58:50.798Z,61.47
2023-02-12T22:01:21.667Z,65.22
2023-02-12T22:03:50.136Z,64.25
2023-02-12T22:06:19.149Z,59.40
2023-02-12T22:08:46.575Z,57.08
2023-02-12T22:11:14.301Z,58.80
2023-02-12T22:13:41.883Z,59.70
2023-02-12T22:16:12.244Z,53.38
2023-02-12T22:18:41.302Z,63.85
2023-02-12T22:21:13.290Z,55.38
2023-02-12T22:23:41.986Z,56.47
2023-02-12T22:26:14.970Z,52.62
2023-02-12T22:28:54.228Z,53.78
2023-02-12T22:31:25.234Z,44.47
2023-02-12T22:33:54.831Z,46.97
2023-02-12T22:36:22.061Z,44.53
2023-02-12T22:38:49.218Z,50.60
2023-02-12T22:41:16.628Z,52.78
2023-02-12T22:43:44.053Z,42.47
2023-02-12T22:46:12.561Z,46.65
2023-02-12T22:48:40.421Z,43.67
2023-02-12T22:51:14.186Z,47.03
2023-02-12T22:53:41.527Z,46.47
2023-02-12T22:56:08.917Z,46.00
2023-02-12T22:58:38.051Z,43.03
2023-02-12T23:01:07.662Z,39.38
2023-02-12T23:03:37.445Z,43.53
2023-02-12T23:06:06.630Z,48.60
2023-02-12T23:08:34.587Z,42.55
2023-02-12T23:11:01.657Z,41.97
2023-02-12T23:13:30.227Z,45.08
2023-02-12T23:15:58.128Z,51.05
2023-02-12T23:18:25.376Z,38.65
2023-02-12T23:20:53.073Z,38.67
2023-02-12T23:23:21.255Z,38.03
2023-02-12T23:25:48.638Z,36.95
2023-02-12T23:28:16.192Z,32.50
2023-02-12T23:30:43.708Z,35.20
2023-02-12T23:33:11.745Z,37.78
2023-02-12T23:35:38.830Z,34.50
2023-02-12T23:38:06.269Z,35.60
2023-02-12T23:40:34.176Z,31.37
2023-02-12T23:43:01.316Z,31.87
2023-02-12T23:45:29.245Z,27.52
2023-02-12T23:47:56.653Z,30.92
2023-02-12T23:50:23.758Z,33.50
2023-02-12T23:52:51.109Z,35.83
2023-02-12T23:55:20.139Z,35.70
2023-02-12T23:57:47.785Z,34.33
